Terminal Aerodrome Forecast
Issued by NWS

Home | Current Version | Previous Version | Graphics & Text | Print | Product List | Glossary On
Versions: 1 2 3 4 5 6 7 8 9 10 11 12 13 14 15 16
000
FTUS45 KGGW 221720
TAFGDV
TAF
KGDV 221720Z 2218/2318 08011KT P6SM VCTS SCT100CB
     FM230000 11014KT P6SM SCT090
      TEMPO 2300/2303 6SM TSGR BKN090CB
     FM230600 10009KT P6SM SCT110
     FM230900 21007KT P6SM SCT110
     FM231200 30013KT P6SM FEW150=

USA.gov is the U.S. government's official web portal to all federal, state and local government web resources and services.